Time;durP1;ratioP1;P1;durP2;ratioP2;P2;SDS_P1;SDS_P2;PMS_P1;PMS_P2;Temp;Humidity;BMP_temperature;BMP_pressure;BME280_temperature;BME280_humidity;BME280_pressure;Samples;Min_cycle;Max_cycle;Signal;HPM_P1;HPM_P2
2024/03/26 00:02:14;;;;;;;11.18;3.00;;;4.90;99.90;;;;;;5085233;28;20024;-67
2024/03/26 00:04:40;;;;;;;10.55;2.60;;;4.80;99.90;;;;;;5087619;28;20016;-67
2024/03/26 00:07:05;;;;;;;5.55;1.90;;;4.90;99.90;;;;;;5088321;28;20031;-67
2024/03/26 00:09:31;;;;;;;9.15;3.22;;;4.80;99.90;;;;;;5087515;28;20020;-67
2024/03/26 00:11:57;;;;;;;8.90;3.17;;;4.80;99.90;;;;;;5087967;28;20079;-67
2024/03/26 00:14:23;;;;;;;14.93;3.25;;;4.80;99.90;;;;;;5086418;28;20028;-67
2024/03/26 00:16:48;;;;;;;18.08;2.80;;;4.80;99.90;;;;;;5079931;28;20450;-67
2024/03/26 00:19:14;;;;;;;13.75;2.88;;;4.80;99.90;;;;;;5078099;28;20031;-67
2024/03/26 00:21:39;;;;;;;9.45;2.80;;;4.90;99.90;;;;;;5083436;28;20442;-67
2024/03/26 00:24:05;;;;;;;19.95;3.45;;;4.80;99.90;;;;;;5087300;28;20064;-67
2024/03/26 00:26:32;;;;;;;11.57;3.40;;;4.80;99.90;;;;;;5087596;28;20530;-67
2024/03/26 00:28:57;;;;;;;10.32;2.72;;;4.80;99.90;;;;;;5086414;28;20654;-67
2024/03/26 00:31:23;;;;;;;13.75;3.30;;;4.80;99.90;;;;;;5085099;28;20060;-67
2024/03/26 00:33:48;;;;;;;15.73;3.00;;;4.80;99.90;;;;;;5089486;28;20027;-67
2024/03/26 00:36:14;;;;;;;10.32;2.42;;;4.80;99.90;;;;;;5086990;28;20504;-67
2024/03/26 00:38:40;;;;;;;10.00;3.10;;;4.70;99.90;;;;;;5071321;28;20043;-67
2024/03/26 00:41:05;;;;;;;9.25;2.63;;;4.70;99.90;;;;;;5080446;28;20098;-67
2024/03/26 00:43:31;;;;;;;17.98;3.83;;;4.70;99.90;;;;;;5078851;28;20035;-67
2024/03/26 00:45:56;;;;;;;10.15;2.78;;;4.70;99.90;;;;;;5077141;28;20045;-67
2024/03/26 00:48:22;;;;;;;17.70;3.00;;;4.70;99.90;;;;;;5087034;28;20053;-67
2024/03/26 00:50:47;;;;;;;9.27;2.92;;;4.70;99.90;;;;;;5087146;28;20504;-67
2024/03/26 00:53:13;;;;;;;14.98;3.63;;;4.60;99.90;;;;;;5086897;28;20032;-67
2024/03/26 00:55:39;;;;;;;11.90;3.08;;;4.70;99.90;;;;;;5086817;28;20104;-67
2024/03/26 00:58:04;;;;;;;6.32;2.63;;;4.60;99.90;;;;;;5086628;28;20028;-67
2024/03/26 01:00:30;;;;;;;7.60;3.08;;;4.60;99.90;;;;;;5086967;28;20024;-67
2024/03/26 01:02:55;;;;;;;9.00;3.30;;;4.70;99.90;;;;;;5087031;28;20016;-67
2024/03/26 01:05:21;;;;;;;10.32;3.20;;;4.60;99.90;;;;;;5081664;28;20024;-67
2024/03/26 01:07:47;;;;;;;12.02;3.20;;;4.60;99.90;;;;;;5081379;28;20123;-67
2024/03/26 01:10:13;;;;;;;8.32;3.17;;;4.70;99.90;;;;;;5087481;28;20039;-67
2024/03/26 01:12:39;;;;;;;13.85;3.97;;;4.70;99.90;;;;;;5086838;28;20395;-67
2024/03/26 01:15:05;;;;;;;13.38;3.95;;;4.70;99.90;;;;;;5068149;28;20509;-67
2024/03/26 01:17:30;;;;;;;17.17;3.80;;;4.70;99.90;;;;;;5086908;28;20024;-67
2024/03/26 01:19:56;;;;;;;13.52;3.40;;;4.70;99.90;;;;;;5088572;28;20024;-67
2024/03/26 01:22:22;;;;;;;13.15;3.88;;;4.70;99.90;;;;;;5090268;28;20050;-67
2024/03/26 01:24:47;;;;;;;13.95;3.60;;;4.70;99.90;;;;;;5090772;28;20031;-67
2024/03/26 01:27:13;;;;;;;12.27;3.35;;;4.80;99.90;;;;;;5074215;28;20428;-67
2024/03/26 01:29:38;;;;;;;8.50;3.67;;;4.80;99.90;;;;;;5080413;28;20021;-67
2024/03/26 01:32:04;;;;;;;15.73;4.78;;;4.80;99.90;;;;;;5069615;28;20493;-67
2024/03/26 01:34:30;;;;;;;19.50;4.00;;;4.70;99.90;;;;;;5091777;28;20552;-67
2024/03/26 01:36:55;;;;;;;10.38;3.95;;;4.70;99.90;;;;;;5091015;28;20028;-67
2024/03/26 01:39:21;;;;;;;14.50;3.88;;;4.70;99.90;;;;;;5091089;28;20692;-67
2024/03/26 01:41:46;;;;;;;13.82;4.40;;;4.70;99.90;;;;;;5081779;28;20028;-67
2024/03/26 01:44:12;;;;;;;15.02;4.30;;;4.80;99.90;;;;;;5090239;28;20062;-67
2024/03/26 01:46:38;;;;;;;13.38;3.85;;;4.80;99.90;;;;;;5090352;28;20028;-67
2024/03/26 01:49:07;;;;;;;19.30;4.35;;;4.80;99.90;;;;;;5090478;28;20366;-67
2024/03/26 01:51:35;;;;;;;16.65;4.50;;;4.70;99.90;;;;;;5086983;28;20050;-67
2024/03/26 01:54:03;;;;;;;15.82;4.45;;;4.80;99.90;;;;;;5077621;28;20087;-67
2024/03/26 01:56:30;;;;;;;13.98;3.85;;;4.70;99.90;;;;;;5073500;28;20025;-67
2024/03/26 01:58:57;;;;;;;16.43;4.67;;;4.70;99.90;;;;;;5090467;28;20040;-67
2024/03/26 02:01:25;;;;;;;17.00;4.25;;;4.70;99.90;;;;;;5090613;28;20034;-67
2024/03/26 02:03:51;;;;;;;8.70;3.83;;;4.70;99.90;;;;;;5070861;28;20327;-67
2024/03/26 02:06:17;;;;;;;18.95;5.05;;;4.70;99.90;;;;;;5071478;28;20082;-67
2024/03/26 02:08:43;;;;;;;15.95;3.95;;;4.60;99.90;;;;;;5088539;28;20051;-67
2024/03/26 02:11:09;;;;;;;11.13;4.75;;;4.60;99.90;;;;;;5070349;28;20035;-67
2024/03/26 02:13:34;;;;;;;14.32;4.00;;;4.60;99.90;;;;;;5081320;28;20029;-67
2024/03/26 02:16:00;;;;;;;17.58;4.60;;;4.60;99.90;;;;;;5083542;28;20085;-67
2024/03/26 02:18:26;;;;;;;17.95;4.35;;;4.60;99.90;;;;;;5068839;28;20051;-67
2024/03/26 02:20:51;;;;;;;14.05;5.10;;;4.60;99.90;;;;;;5083671;28;20063;-67
2024/03/26 02:23:21;;;;;;;10.88;4.18;;;4.60;99.90;;;;;;5067654;28;20024;-67
2024/03/26 02:25:47;;;;;;;14.40;4.50;;;4.50;99.90;;;;;;5088766;28;20093;-67
2024/03/26 02:28:13;;;;;;;16.27;4.63;;;4.60;99.90;;;;;;5089832;28;20020;-67
2024/03/26 02:30:38;;;;;;;18.40;4.38;;;4.60;99.90;;;;;;5082131;28;20099;-67
2024/03/26 02:33:04;;;;;;;13.30;4.40;;;4.50;99.90;;;;;;5082997;28;20101;-67
2024/03/26 02:35:30;;;;;;;11.93;3.70;;;4.60;99.90;;;;;;5089598;28;20024;-67
2024/03/26 02:37:55;;;;;;;15.02;3.92;;;4.50;99.90;;;;;;5087228;28;20055;-67
2024/03/26 02:40:21;;;;;;;11.45;3.72;;;4.50;99.90;;;;;;5089792;28;20039;-67
2024/03/26 02:42:47;;;;;;;12.02;3.38;;;4.50;99.90;;;;;;5069069;28;20066;-67
2024/03/26 02:45:14;;;;;;;12.40;4.07;;;4.50;99.90;;;;;;5079933;28;20112;-67
2024/03/26 02:47:39;;;;;;;13.13;4.15;;;4.50;99.90;;;;;;5080647;28;20039;-68
2024/03/26 02:50:05;;;;;;;14.43;4.05;;;4.50;99.90;;;;;;5071964;28;20366;-67
2024/03/26 02:52:31;;;;;;;12.02;3.60;;;4.40;99.90;;;;;;5084801;28;20028;-67
2024/03/26 02:54:57;;;;;;;9.88;3.72;;;4.40;99.90;;;;;;5088775;28;20036;-68
2024/03/26 02:57:22;;;;;;;14.48;4.40;;;4.40;99.90;;;;;;5083280;28;20020;-68
2024/03/26 02:59:48;;;;;;;14.35;4.50;;;4.50;99.90;;;;;;5083403;28;20028;-68
2024/03/26 03:02:13;;;;;;;13.85;3.88;;;4.50;99.90;;;;;;5083290;28;20032;-67
2024/03/26 03:04:39;;;;;;;12.93;4.05;;;4.50;99.90;;;;;;5087260;28;20024;-67
2024/03/26 03:07:04;;;;;;;12.13;3.95;;;4.50;99.90;;;;;;5089193;28;20391;-68
2024/03/26 03:09:30;;;;;;;10.63;3.80;;;4.50;99.90;;;;;;5086600;28;20021;-68
2024/03/26 03:11:56;;;;;;;13.82;4.18;;;4.50;99.90;;;;;;5088734;28;20020;-68
2024/03/26 03:14:21;;;;;;;9.05;3.88;;;4.50;99.90;;;;;;5081826;28;20033;-68
2024/03/26 03:16:47;;;;;;;9.80;4.00;;;4.50;99.90;;;;;;5077383;28;20035;-68
2024/03/26 03:19:12;;;;;;;13.38;3.90;;;4.50;99.90;;;;;;5076221;28;20031;-68
2024/03/26 03:21:38;;;;;;;12.82;3.80;;;4.40;99.90;;;;;;5073735;28;20024;-68
2024/03/26 03:24:04;;;;;;;15.20;4.30;;;4.40;99.90;;;;;;5076346;28;20051;-68
2024/03/26 03:26:29;;;;;;;16.50;4.60;;;4.40;99.90;;;;;;5079804;28;20058;-68
2024/03/26 03:28:55;;;;;;;10.23;3.30;;;4.40;99.90;;;;;;5075935;28;20115;-68
2024/03/26 03:31:20;;;;;;;8.70;3.30;;;4.40;99.90;;;;;;5063407;28;20032;-67
2024/03/26 03:33:46;;;;;;;18.42;3.80;;;4.40;99.90;;;;;;5081509;28;20024;-67
2024/03/26 03:36:12;;;;;;;8.60;3.40;;;4.40;99.90;;;;;;5060824;28;20036;-68
2024/03/26 03:38:37;;;;;;;12.63;3.58;;;4.40;99.90;;;;;;5078043;28;20029;-67
2024/03/26 03:41:03;;;;;;;8.23;3.38;;;4.50;99.90;;;;;;5086527;28;20032;-67
2024/03/26 03:43:28;;;;;;;14.25;3.90;;;4.50;99.90;;;;;;5082804;28;20024;-68
2024/03/26 03:45:54;;;;;;;12.23;3.70;;;4.50;99.90;;;;;;5087530;28;20054;-68
2024/03/26 03:48:19;;;;;;;7.22;3.10;;;4.50;99.90;;;;;;5085538;28;20571;-68
2024/03/26 03:50:45;;;;;;;12.90;4.18;;;4.50;99.90;;;;;;5088241;28;20111;-68
2024/03/26 03:53:11;;;;;;;17.25;4.28;;;4.50;99.90;;;;;;5064349;28;20059;-67
2024/03/26 03:55:36;;;;;;;11.73;3.75;;;4.50;99.90;;;;;;5088359;28;20044;-68
2024/03/26 03:58:02;;;;;;;9.65;3.33;;;4.50;99.90;;;;;;5083361;28;20546;-68
2024/03/26 04:00:28;;;;;;;16.55;3.88;;;4.60;99.90;;;;;;5083165;28;20085;-68
2024/03/26 04:02:53;;;;;;;12.23;4.15;;;4.50;99.90;;;;;;5059932;28;20085;-68
2024/03/26 04:05:19;;;;;;;9.77;3.33;;;4.50;99.90;;;;;;5079513;28;20319;-68
2024/03/26 04:07:45;;;;;;;13.00;3.95;;;4.50;99.90;;;;;;5076869;28;20059;-68
2024/03/26 04:10:10;;;;;;;11.15;3.72;;;4.50;99.90;;;;;;5082754;28;20454;-68
2024/03/26 04:12:36;;;;;;;15.57;3.80;;;4.40;99.90;;;;;;5070075;28;20077;-68
2024/03/26 04:15:02;;;;;;;9.77;3.03;;;4.40;99.90;;;;;;5086209;28;20040;-68
2024/03/26 04:17:28;;;;;;;7.00;3.25;;;4.40;99.90;;;;;;5087837;28;20028;-67
2024/03/26 04:19:53;;;;;;;9.60;3.28;;;4.40;99.90;;;;;;5070933;28;20073;-68
2024/03/26 04:22:19;;;;;;;11.95;3.47;;;4.40;99.90;;;;;;5087764;28;20136;-67
2024/03/26 04:24:45;;;;;;;11.23;3.58;;;4.40;99.90;;;;;;5087500;28;20035;-67
2024/03/26 04:27:11;;;;;;;9.85;3.40;;;4.40;99.90;;;;;;5067327;28;20084;-68
2024/03/26 04:29:36;;;;;;;13.15;3.50;;;4.40;99.90;;;;;;5073467;28;20021;-68
2024/03/26 04:32:02;;;;;;;13.32;3.20;;;4.40;99.90;;;;;;5059304;28;20161;-68
2024/03/26 04:34:28;;;;;;;8.35;3.42;;;4.40;99.90;;;;;;5082930;28;20591;-68
2024/03/26 04:37:03;;;;;;;10.70;3.35;;;4.40;99.90;;;;;;5072832;28;20024;-68
2024/03/26 04:39:29;;;;;;;14.30;3.33;;;4.40;99.90;;;;;;5083423;28;20568;-68
2024/03/26 04:41:54;;;;;;;13.02;4.00;;;4.30;99.90;;;;;;5080415;28;20146;-68
2024/03/26 04:44:21;;;;;;;11.27;3.65;;;4.40;99.90;;;;;;5076099;28;20617;-68
2024/03/26 04:46:47;;;;;;;14.07;3.80;;;4.30;99.90;;;;;;5080416;28;20146;-68
2024/03/26 04:49:12;;;;;;;11.50;3.30;;;4.30;99.90;;;;;;5080368;28;20115;-67
2024/03/26 04:51:38;;;;;;;9.02;3.88;;;4.30;99.90;;;;;;5077727;28;20028;-67
2024/03/26 04:54:04;;;;;;;14.38;4.10;;;4.30;99.90;;;;;;5080877;28;20032;-67
2024/03/26 04:56:30;;;;;;;12.05;4.05;;;4.30;99.90;;;;;;5080297;28;20029;-68
2024/03/26 04:58:55;;;;;;;12.60;3.92;;;4.30;99.90;;;;;;5070383;28;20080;-68
2024/03/26 05:01:21;;;;;;;15.77;4.60;;;4.30;99.90;;;;;;5081411;28;20038;-68
2024/03/26 05:03:47;;;;;;;13.40;3.97;;;4.30;99.90;;;;;;5059375;28;20028;-68
2024/03/26 05:06:12;;;;;;;9.13;3.55;;;4.30;99.90;;;;;;5073956;28;20027;-67
2024/03/26 05:08:38;;;;;;;13.73;4.70;;;4.30;99.90;;;;;;5081158;28;20025;-68
2024/03/26 05:11:03;;;;;;;12.80;3.95;;;4.30;99.90;;;;;;5084191;28;20033;-66
2024/03/26 05:13:29;;;;;;;7.53;3.70;;;4.40;99.90;;;;;;5083480;28;20052;-66
2024/03/26 05:15:57;;;;;;;12.50;3.97;;;4.40;99.90;;;;;;5080109;28;20028;-66
2024/03/26 05:18:23;;;;;;;11.70;4.50;;;4.40;99.90;;;;;;5082555;28;20035;-66
2024/03/26 05:20:48;;;;;;;13.70;4.25;;;4.40;99.90;;;;;;5081235;28;20033;-65
2024/03/26 05:23:14;;;;;;;12.50;4.50;;;4.40;99.90;;;;;;5086752;28;20024;-65
2024/03/26 05:25:39;;;;;;;12.05;4.35;;;4.40;99.90;;;;;;5084369;28;20022;-66
2024/03/26 05:28:05;;;;;;;10.88;4.70;;;4.40;99.90;;;;;;5066279;28;20085;-65
2024/03/26 05:30:31;;;;;;;9.23;4.55;;;4.40;99.90;;;;;;5086094;28;20524;-66
2024/03/26 05:32:56;;;;;;;13.27;3.97;;;4.40;99.90;;;;;;5086969;28;20089;-65
2024/03/26 05:35:22;;;;;;;14.82;4.43;;;4.40;99.90;;;;;;5086527;28;20028;-66
2024/03/26 05:37:48;;;;;;;14.68;4.45;;;4.40;99.90;;;;;;5081083;28;20033;-64
2024/03/26 05:40:15;;;;;;;12.45;4.10;;;4.40;99.90;;;;;;5074755;28;20582;-66
2024/03/26 05:42:40;;;;;;;10.10;4.10;;;4.40;99.90;;;;;;5082757;28;20206;-65
2024/03/26 05:45:06;;;;;;;14.30;4.72;;;4.40;99.90;;;;;;5086020;28;20132;-66
2024/03/26 05:47:32;;;;;;;10.07;5.00;;;4.40;99.90;;;;;;5069633;28;20032;-65
2024/03/26 05:49:57;;;;;;;12.73;4.38;;;4.40;99.90;;;;;;5086460;28;20026;-66
2024/03/26 05:52:23;;;;;;;11.98;4.68;;;4.40;99.90;;;;;;5085129;28;20603;-66
2024/03/26 05:54:50;;;;;;;11.10;4.40;;;4.40;99.90;;;;;;5086232;28;20492;-65
2024/03/26 05:57:16;;;;;;;12.45;4.70;;;4.50;99.90;;;;;;5084228;28;20066;-65
2024/03/26 05:59:41;;;;;;;10.50;3.95;;;4.50;99.90;;;;;;5077511;28;20038;-64
2024/03/26 06:02:07;;;;;;;13.05;4.28;;;4.40;99.90;;;;;;5080614;28;20035;-66
2024/03/26 06:04:33;;;;;;;13.63;4.63;;;4.40;99.90;;;;;;5081217;28;20031;-66
2024/03/26 06:06:58;;;;;;;12.82;5.35;;;4.50;99.90;;;;;;5086833;28;20028;-66
2024/03/26 06:09:24;;;;;;;14.25;5.53;;;4.50;99.90;;;;;;5086056;28;20028;-64
2024/03/26 06:11:49;;;;;;;16.55;4.82;;;4.50;99.90;;;;;;5087940;28;20516;-65
2024/03/26 06:14:15;;;;;;;16.92;4.70;;;4.50;99.90;;;;;;5067423;28;20081;-66
2024/03/26 06:16:41;;;;;;;17.77;5.47;;;4.50;99.90;;;;;;5083218;28;20009;-65
2024/03/26 06:19:07;;;;;;;12.38;5.43;;;4.50;99.90;;;;;;5088863;28;20024;-65
2024/03/26 06:21:32;;;;;;;11.70;5.18;;;4.50;99.90;;;;;;5083008;28;20039;-65
2024/03/26 06:23:58;;;;;;;13.82;5.28;;;4.60;99.90;;;;;;5089747;28;20021;-66
2024/03/26 06:26:23;;;;;;;17.05;4.90;;;4.60;99.90;;;;;;5074023;28;20025;-65
2024/03/26 06:28:49;;;;;;;15.25;5.57;;;4.60;99.90;;;;;;5087432;28;20031;-66
2024/03/26 06:31:15;;;;;;;12.23;5.45;;;4.70;99.90;;;;;;5088099;28;20028;-65
2024/03/26 06:33:40;;;;;;;15.32;5.63;;;4.70;99.90;;;;;;5073392;28;20044;-66
2024/03/26 06:36:08;;;;;;;11.80;4.72;;;4.80;99.90;;;;;;5084914;28;20126;-66
2024/03/26 06:38:33;;;;;;;11.98;5.55;;;4.80;99.90;;;;;;5084996;28;20024;-66
2024/03/26 06:40:59;;;;;;;9.88;4.82;;;4.90;99.90;;;;;;5088540;28;20036;-65
2024/03/26 06:43:25;;;;;;;12.68;4.70;;;5.00;99.90;;;;;;5089417;28;20423;-65
2024/03/26 06:45:51;;;;;;;14.45;5.18;;;5.00;99.90;;;;;;5074228;28;20017;-66
2024/03/26 06:48:16;;;;;;;11.63;5.20;;;5.10;99.90;;;;;;5084117;28;20068;-65
2024/03/26 06:50:42;;;;;;;14.45;4.75;;;5.20;99.90;;;;;;5064529;28;20039;-66
2024/03/26 06:53:08;;;;;;;12.30;5.28;;;5.30;99.90;;;;;;5088303;28;20456;-65
2024/03/26 06:55:34;;;;;;;12.52;5.53;;;5.30;99.90;;;;;;5089859;28;20054;-66
2024/03/26 06:58:00;;;;;;;17.15;6.13;;;5.40;99.90;;;;;;5084559;28;20554;-66
2024/03/26 07:00:25;;;;;;;12.55;4.63;;;5.50;99.90;;;;;;5084761;28;20033;-65
2024/03/26 07:02:57;;;;;;;11.40;4.78;;;5.50;99.90;;;;;;5074478;28;20513;-66
2024/03/26 07:05:25;;;;;;;15.13;5.22;;;5.60;99.90;;;;;;5076751;28;20036;-66
2024/03/26 07:07:51;;;;;;;14.55;5.03;;;5.70;99.90;;;;;;5083600;28;20024;-66
2024/03/26 07:10:17;;;;;;;15.20;5.63;;;5.70;99.90;;;;;;5083135;28;20393;-66
2024/03/26 07:12:42;;;;;;;15.13;5.20;;;5.80;99.90;;;;;;5077627;28;20025;-66
2024/03/26 07:15:09;;;;;;;22.27;5.22;;;5.90;99.90;;;;;;5073799;28;20475;-66
2024/03/26 07:17:34;;;;;;;18.55;5.68;;;6.00;99.90;;;;;;5071224;28;20041;-65
2024/03/26 07:20:00;;;;;;;14.77;5.35;;;6.00;99.90;;;;;;5088233;28;20146;-65
2024/03/26 07:22:27;;;;;;;13.48;5.07;;;6.10;99.90;;;;;;5089566;28;20552;-66
2024/03/26 07:24:53;;;;;;;12.00;5.35;;;6.10;99.90;;;;;;5088307;28;20105;-66
2024/03/26 07:27:19;;;;;;;12.77;5.70;;;6.20;99.90;;;;;;5088224;28;20039;-66
2024/03/26 07:29:47;;;;;;;21.00;6.22;;;6.30;99.90;;;;;;5082273;28;20028;-65
2024/03/26 07:32:12;;;;;;;13.93;5.47;;;6.30;99.90;;;;;;5063046;28;20064;-66
2024/03/26 07:34:38;;;;;;;16.88;5.55;;;6.50;99.90;;;;;;5079335;28;20051;-66
2024/03/26 07:37:03;;;;;;;16.23;5.65;;;6.50;99.90;;;;;;5088101;28;20021;-66
2024/03/26 07:39:29;;;;;;;17.05;5.38;;;6.60;99.90;;;;;;5088294;28;20044;-65
2024/03/26 07:41:58;;;;;;;14.82;5.50;;;6.60;99.90;;;;;;5071043;28;20647;-66
2024/03/26 07:44:24;;;;;;;11.82;5.32;;;6.70;99.90;;;;;;5087493;28;20024;-65
2024/03/26 07:46:49;;;;;;;15.05;5.70;;;6.80;99.90;;;;;;5081190;28;20127;-65
2024/03/26 07:49:15;;;;;;;12.30;4.82;;;6.80;99.90;;;;;;5088016;28;20479;-66
2024/03/26 07:51:41;;;;;;;15.75;5.88;;;6.90;99.90;;;;;;5076026;28;20024;-66
2024/03/26 07:54:07;;;;;;;17.63;5.15;;;6.90;99.90;;;;;;5076923;28;20040;-65
2024/03/26 07:56:33;;;;;;;30.58;6.57;;;7.00;99.90;;;;;;5088352;28;20021;-66
2024/03/26 07:58:59;;;;;;;10.98;4.82;;;7.10;99.90;;;;;;5081953;28;20384;-66
2024/03/26 08:01:24;;;;;;;23.00;5.18;;;7.20;99.90;;;;;;5086481;28;20483;-66
2024/03/26 08:03:51;;;;;;;20.33;4.78;;;7.30;99.90;;;;;;5083263;28;20381;-66
2024/03/26 08:06:16;;;;;;;10.45;4.53;;;7.40;99.90;;;;;;5071606;28;20031;-66
2024/03/26 08:08:45;;;;;;;13.50;5.00;;;7.40;99.90;;;;;;5091719;28;20040;-66
2024/03/26 08:11:14;;;;;;;8.50;4.43;;;7.40;99.90;;;;;;5093355;28;20467;-66
2024/03/26 08:13:40;;;;;;;11.73;4.53;;;7.50;99.90;;;;;;5087588;28;20658;-66
2024/03/26 08:16:06;;;;;;;9.13;4.03;;;7.60;99.90;;;;;;5068925;28;20584;-66
2024/03/26 08:18:32;;;;;;;9.15;4.40;;;7.70;99.90;;;;;;5073660;28;20024;-66
2024/03/26 08:20:59;;;;;;;9.38;4.03;;;7.70;99.90;;;;;;5084910;28;20020;-66
2024/03/26 08:23:25;;;;;;;15.10;5.30;;;7.80;99.70;;;;;;5087307;28;20030;-65
2024/03/26 08:25:50;;;;;;;13.40;4.80;;;7.90;99.60;;;;;;5087173;28;20020;-66
2024/03/26 08:28:16;;;;;;;10.18;4.65;;;8.00;99.40;;;;;;5068998;28;20020;-66
2024/03/26 08:30:42;;;;;;;11.85;4.35;;;8.10;99.40;;;;;;5083195;28;20025;-66
2024/03/26 08:33:07;;;;;;;8.88;4.40;;;8.20;99.40;;;;;;5086573;28;20078;-66
2024/03/26 08:35:41;;;;;;;11.73;3.80;;;8.30;99.10;;;;;;5081717;28;20075;-66
2024/03/26 08:38:07;;;;;;;8.07;4.18;;;8.40;98.90;;;;;;5075583;28;20028;-66
2024/03/26 08:40:33;;;;;;;9.25;4.18;;;8.40;98.60;;;;;;5083610;28;20024;-66
2024/03/26 08:42:58;;;;;;;11.75;3.90;;;8.60;98.70;;;;;;5059141;28;20032;-66
2024/03/26 08:45:25;;;;;;;10.45;3.28;;;8.60;98.30;;;;;;5069686;28;20028;-66
2024/03/26 08:47:51;;;;;;;9.07;3.75;;;8.60;98.20;;;;;;5086733;28;20123;-65
2024/03/26 08:50:17;;;;;;;6.13;3.28;;;8.70;98.30;;;;;;5086942;28;20341;-66
2024/03/26 08:52:43;;;;;;;22.95;4.10;;;8.80;98.30;;;;;;5086643;28;20016;-65
2024/03/26 08:55:08;;;;;;;9.07;3.90;;;8.90;98.00;;;;;;5086072;28;20047;-66
2024/03/26 08:57:34;;;;;;;5.38;3.53;;;9.00;98.00;;;;;;5068732;28;20032;-66
2024/03/26 08:59:59;;;;;;;9.18;3.90;;;9.00;97.70;;;;;;5084253;28;20071;-66
2024/03/26 09:02:25;;;;;;;17.05;4.20;;;9.20;97.80;;;;;;5087251;28;20467;-65
2024/03/26 09:04:51;;;;;;;16.67;3.88;;;9.30;97.50;;;;;;5087235;28;20389;-66
2024/03/26 09:07:16;;;;;;;9.35;3.85;;;9.40;97.20;;;;;;5087546;28;20028;-65
2024/03/26 09:09:42;;;;;;;7.55;3.33;;;9.40;97.20;;;;;;5086903;28;20117;-65
2024/03/26 09:12:07;;;;;;;9.65;2.92;;;9.50;97.00;;;;;;5065184;28;20047;-66
2024/03/26 09:14:34;;;;;;;7.90;3.58;;;9.60;96.60;;;;;;5085105;28;20580;-66
2024/03/26 09:17:00;;;;;;;8.00;3.50;;;9.70;96.80;;;;;;5070203;28;20059;-66
2024/03/26 09:19:26;;;;;;;8.70;3.00;;;9.90;96.90;;;;;;5087149;28;20470;-66
2024/03/26 09:21:52;;;;;;;6.82;3.03;;;10.10;96.00;;;;;;5084152;28;20155;-66
2024/03/26 09:24:18;;;;;;;8.80;3.30;;;10.20;95.60;;;;;;5078059;28;20534;-66
2024/03/26 09:26:43;;;;;;;5.65;3.05;;;10.30;95.50;;;;;;5077259;28;20025;-66
2024/03/26 09:29:09;;;;;;;12.10;2.65;;;10.40;95.40;;;;;;5080927;28;20028;-66
2024/03/26 09:31:34;;;;;;;9.90;3.47;;;10.50;94.80;;;;;;5087255;28;20067;-65
2024/03/26 09:34:00;;;;;;;7.43;3.10;;;10.50;94.70;;;;;;5086678;28;20039;-66
2024/03/26 09:36:25;;;;;;;11.95;3.35;;;10.60;94.70;;;;;;5077543;28;20079;-65
2024/03/26 09:38:52;;;;;;;10.57;3.65;;;10.70;94.60;;;;;;5084967;28;20043;-66
2024/03/26 09:41:22;;;;;;;7.82;3.88;;;10.70;94.20;;;;;;5079736;28;20044;-66
2024/03/26 09:43:50;;;;;;;7.43;3.38;;;10.70;94.10;;;;;;5086935;28;20019;-66
2024/03/26 09:46:17;;;;;;;8.82;3.08;;;10.80;94.70;;;;;;5090378;28;20024;-66
2024/03/26 09:48:43;;;;;;;8.52;2.70;;;10.80;94.10;;;;;;5079045;28;20021;-66
2024/03/26 09:51:12;;;;;;;6.88;3.30;;;10.70;93.60;;;;;;5084507;28;20035;-66
2024/03/26 09:53:39;;;;;;;8.38;3.42;;;10.70;93.90;;;;;;5073078;28;20024;-65
2024/03/26 09:56:05;;;;;;;7.40;2.70;;;10.80;94.30;;;;;;5089656;28;20032;-66
2024/03/26 09:58:31;;;;;;;8.57;3.08;;;10.90;93.80;;;;;;5091189;28;20085;-66
2024/03/26 10:00:58;;;;;;;10.15;3.10;;;11.00;93.80;;;;;;5089773;28;20050;-66
2024/03/26 10:03:32;;;;;;;6.72;3.28;;;11.00;93.80;;;;;;5083696;28;20119;-66
2024/03/26 10:06:02;;;;;;;6.28;2.58;;;11.00;93.70;;;;;;5090070;28;20034;-66
2024/03/26 10:08:28;;;;;;;10.63;2.75;;;11.20;93.50;;;;;;5088204;28;20524;-66
2024/03/26 10:10:55;;;;;;;11.25;3.20;;;11.30;93.60;;;;;;5085161;28;20020;-66
2024/03/26 10:13:22;;;;;;;9.00;3.20;;;11.60;93.90;;;;;;5079425;28;20025;-65
2024/03/26 10:15:48;;;;;;;12.98;3.40;;;11.60;93.50;;;;;;5075562;28;20032;-65
2024/03/26 10:18:14;;;;;;;5.95;3.10;;;11.70;93.50;;;;;;5087697;28;20036;-65
2024/03/26 10:20:39;;;;;;;4.53;2.95;;;11.70;92.90;;;;;;5085700;28;20033;-65
2024/03/26 10:23:08;;;;;;;7.00;2.85;;;11.80;92.90;;;;;;5077954;28;20030;-65
2024/03/26 10:25:34;;;;;;;5.90;3.05;;;11.80;92.50;;;;;;5085968;28;20024;-65
2024/03/26 10:28:02;;;;;;;11.52;3.10;;;11.70;92.60;;;;;;5089066;28;20128;-65
2024/03/26 10:30:28;;;;;;;6.47;3.30;;;11.90;93.10;;;;;;5083906;28;20063;-65
2024/03/26 10:32:55;;;;;;;7.60;3.47;;;11.80;92.70;;;;;;5089134;28;20036;-65
2024/03/26 10:35:22;;;;;;;7.05;3.17;;;11.70;92.70;;;;;;5076564;28;20020;-65
2024/03/26 10:37:54;;;;;;;6.70;3.58;;;11.60;92.70;;;;;;5080088;28;20051;-65
2024/03/26 10:40:31;;;;;;;8.13;3.53;;;11.80;93.60;;;;;;5083103;28;20022;-65
2024/03/26 10:43:01;;;;;;;8.02;3.53;;;11.80;93.80;;;;;;5082500;28;20105;-65
2024/03/26 10:45:27;;;;;;;4.65;3.00;;;11.70;93.80;;;;;;5065392;28;20509;-65
2024/03/26 10:47:56;;;;;;;9.55;4.15;;;11.70;93.90;;;;;;5077548;28;20036;-65
2024/03/26 10:50:24;;;;;;;5.97;3.63;;;11.60;93.50;;;;;;5086655;28;20088;-65
2024/03/26 10:52:51;;;;;;;8.10;3.63;;;11.70;94.00;;;;;;5087937;28;20036;-66
2024/03/26 10:55:17;;;;;;;6.50;3.35;;;11.90;94.30;;;;;;5089709;28;20059;-65
2024/03/26 10:57:44;;;;;;;9.38;3.83;;;11.90;94.00;;;;;;5089205;28;20028;-65
2024/03/26 11:00:12;;;;;;;7.50;3.90;;;11.90;94.20;;;;;;5088804;28;20203;-65
2024/03/26 11:02:50;;;;;;;6.10;3.85;;;12.00;94.40;;;;;;5087720;28;20182;-65
2024/03/26 11:05:15;;;;;;;;;;;12.10;94.00;;;;;;5088945;28;20062;-65
2024/03/26 11:07:44;;;;;;;7.70;3.58;;;12.20;93.70;;;;;;5067134;28;19912;-65
2024/03/26 11:10:15;;;;;;;7.85;3.40;;;12.20;93.70;;;;;;5083367;28;20032;-65
2024/03/26 11:12:41;;;;;;;7.55;4.32;;;12.10;93.80;;;;;;5088668;28;20107;-65
2024/03/26 11:15:16;;;;;;;5.75;3.78;;;12.10;93.70;;;;;;5088228;28;20032;-65
2024/03/26 11:17:57;;;;;;;7.72;3.75;;;12.00;93.60;;;;;;5087111;28;20053;-65
2024/03/26 11:20:31;;;;;;;12.88;4.55;;;11.80;93.70;;;;;;5069806;28;20031;-65
2024/03/26 11:23:06;;;;;;;9.30;4.18;;;11.90;94.10;;;;;;5086921;28;20052;-65
2024/03/26 11:25:33;;;;;;;8.98;4.97;;;11.90;94.10;;;;;;5086422;28;20137;-65
2024/03/26 11:28:01;;;;;;;11.68;4.47;;;11.90;94.10;;;;;;5088117;28;20032;-65
2024/03/26 11:30:30;;;;;;;10.90;4.30;;;11.90;93.80;;;;;;5079086;28;20024;-65
2024/03/26 11:32:56;;;;;;;7.53;3.50;;;11.90;94.20;;;;;;5077263;28;20557;-65
2024/03/26 11:35:27;;;;;;;10.20;4.75;;;11.80;94.50;;;;;;5070108;28;20743;-65
2024/03/26 11:37:56;;;;;;;8.43;4.63;;;11.70;94.40;;;;;;5075291;28;20039;-65
2024/03/26 11:40:24;;;;;;;6.22;3.95;;;11.70;94.80;;;;;;5083725;28;20039;-65
2024/03/26 11:42:53;;;;;;;7.32;4.07;;;11.70;94.50;;;;;;5079927;28;20039;-65
2024/03/26 11:45:19;;;;;;;7.38;4.78;;;11.70;94.60;;;;;;5064534;28;20039;-65
2024/03/26 11:47:44;;;;;;;10.70;4.60;;;11.70;94.80;;;;;;5070442;28;20062;-65
2024/03/26 11:50:10;;;;;;;7.93;4.78;;;11.80;94.90;;;;;;5082605;28;20071;-64
2024/03/26 11:52:37;;;;;;;7.90;4.68;;;11.70;94.90;;;;;;5085512;28;20069;-65
2024/03/26 11:55:05;;;;;;;9.15;4.65;;;11.80;95.50;;;;;;5087621;28;20527;-65
2024/03/26 11:57:31;;;;;;;14.07;4.90;;;11.90;95.20;;;;;;5066052;28;20031;-64
2024/03/26 11:59:57;;;;;;;8.38;4.65;;;11.80;95.20;;;;;;5087920;28;20032;-64
2024/03/26 12:02:23;;;;;;;10.77;5.20;;;12.00;95.30;;;;;;5082410;28;20539;-65
2024/03/26 12:04:49;;;;;;;12.77;5.00;;;12.10;95.00;;;;;;5086885;28;20028;-65
2024/03/26 12:07:23;;;;;;;7.93;4.55;;;12.10;95.10;;;;;;5082489;28;20088;-65
2024/03/26 12:09:49;;;;;;;7.00;4.20;;;12.20;95.20;;;;;;5073295;28;20028;-65
2024/03/26 12:12:16;;;;;;;7.95;4.70;;;12.20;95.10;;;;;;5087634;28;20036;-65
2024/03/26 12:14:41;;;;;;;15.20;4.90;;;12.20;95.10;;;;;;5075510;28;20421;-65
2024/03/26 12:17:07;;;;;;;8.13;3.97;;;12.20;95.30;;;;;;5084679;28;20028;-66
2024/03/26 12:19:34;;;;;;;8.30;4.60;;;12.20;95.20;;;;;;5082569;28;20023;-66
2024/03/26 12:22:06;;;;;;;7.40;4.50;;;12.10;95.00;;;;;;5087448;28;20028;-66
2024/03/26 12:24:32;;;;;;;7.10;4.07;;;12.10;95.20;;;;;;5082742;28;20048;-66
2024/03/26 12:26:58;;;;;;;14.77;4.40;;;12.00;95.00;;;;;;5062134;28;20094;-66
2024/03/26 12:29:23;;;;;;;7.80;4.18;;;11.80;94.90;;;;;;5085950;28;20028;-66
2024/03/26 12:31:50;;;;;;;14.48;4.68;;;11.90;95.00;;;;;;5087410;28;20097;-65
2024/03/26 12:34:18;;;;;;;7.72;4.00;;;12.00;95.00;;;;;;5087597;28;20065;-65
2024/03/26 12:36:45;;;;;;;12.93;4.30;;;11.90;94.60;;;;;;5087474;28;20024;-66
2024/03/26 12:39:11;;;;;;;9.63;4.18;;;11.90;94.60;;;;;;5070583;28;20035;-66
2024/03/26 12:41:37;;;;;;;8.32;4.47;;;11.90;94.60;;;;;;5085420;28;20020;-66
2024/03/26 12:44:05;;;;;;;10.60;5.05;;;11.80;94.80;;;;;;5087192;28;20032;-66